Time;durP1;ratioP1;P1;durP2;ratioP2;P2;SDS_P1;SDS_P2;PMS_P1;PMS_P2;Temp;Humidity;BMP_temperature;BMP_pressure;BME280_temperature;BME280_humidity;BME280_pressure;Samples;Min_cycle;Max_cycle;Signal;HPM_P1;HPM_P2
2024/03/04 05:31:13;;;;;;;0.20;0.20;;;2.20;85.60;;;;;;5399326;24;20045;-75
2024/03/04 05:33:39;;;;;;;0.17;0.17;;;2.10;85.70;;;;;;4841902;29;20022;-75
2024/03/04 05:36:08;;;;;;;0.20;0.20;;;2.10;85.80;;;;;;4845384;29;20061;-75
2024/03/04 05:38:36;;;;;;;0.10;0.10;;;2.10;85.80;;;;;;4844542;29;20022;-75
2024/03/04 05:41:02;;;;;;;0.20;0.20;;;2.20;85.90;;;;;;4845407;29;20082;-75
2024/03/04 05:43:28;;;;;;;0.20;0.20;;;2.20;85.90;;;;;;4845293;29;20019;-74
2024/03/04 05:45:53;;;;;;;0.20;0.20;;;2.20;86.00;;;;;;4844431;29;20037;-75
2024/03/04 05:48:19;;;;;;;0.22;0.22;;;2.20;86.00;;;;;;4843912;29;20041;-75
2024/03/04 05:50:46;;;;;;;0.15;0.15;;;2.20;86.00;;;;;;4845299;29;20042;-75
2024/03/04 05:53:12;;;;;;;0.20;0.20;;;2.30;86.00;;;;;;4844060;29;20596;-75
2024/03/04 05:55:38;;;;;;;0.20;0.20;;;2.30;86.00;;;;;;4845423;29;20038;-75
2024/03/04 05:58:04;;;;;;;0.20;0.20;;;2.30;85.90;;;;;;4844919;29;20037;-75
2024/03/04 06:00:32;;;;;;;0.20;0.20;;;2.40;85.90;;;;;;4827579;29;20037;-75
2024/03/04 06:02:58;;;;;;;0.20;0.20;;;2.40;85.90;;;;;;4844677;29;20432;-75
2024/03/04 06:05:23;;;;;;;0.20;0.20;;;2.40;85.90;;;;;;4845593;29;20037;-75
2024/03/04 06:07:49;;;;;;;0.20;0.20;;;2.50;85.90;;;;;;4825136;29;20090;-75
2024/03/04 06:10:15;;;;;;;0.20;0.20;;;2.50;85.90;;;;;;4826775;29;20045;-75
2024/03/04 06:12:41;;;;;;;0.20;0.20;;;2.50;86.00;;;;;;4836268;29;20442;-75
2024/03/04 06:15:07;;;;;;;0.20;0.20;;;2.50;86.00;;;;;;4845308;29;20042;-75
2024/03/04 06:17:33;;;;;;;0.17;0.17;;;2.50;86.00;;;;;;4845174;29;20522;-75
2024/03/04 06:19:59;;;;;;;0.20;0.20;;;2.60;86.00;;;;;;4828582;29;20030;-75
2024/03/04 06:22:24;;;;;;;0.20;0.20;;;2.60;86.00;;;;;;4844652;29;20065;-75
2024/03/04 06:24:51;;;;;;;0.20;0.20;;;2.60;86.10;;;;;;4844787;29;20030;-75
2024/03/04 06:27:16;;;;;;;0.20;0.20;;;2.60;86.30;;;;;;4845754;29;20030;-75
2024/03/04 06:29:42;;;;;;;0.20;0.20;;;2.60;86.20;;;;;;4848377;29;20033;-75
2024/03/04 06:32:08;;;;;;;0.10;0.10;;;2.60;86.20;;;;;;4847706;29;20086;-75
2024/03/04 06:34:33;;;;;;;0.20;0.20;;;2.60;86.20;;;;;;4848297;29;20045;-75
2024/03/04 06:36:59;;;;;;;0.20;0.20;;;2.70;86.20;;;;;;4847839;29;20030;-75
2024/03/04 06:39:25;;;;;;;0.20;0.20;;;2.70;86.20;;;;;;4831250;29;20070;-75
2024/03/04 06:41:54;;;;;;;0.20;0.20;;;2.70;86.30;;;;;;4831670;29;20026;-75
2024/03/04 06:44:19;;;;;;;0.20;0.20;;;2.70;86.40;;;;;;4831454;29;20034;-75
2024/03/04 06:46:46;;;;;;;0.20;0.20;;;2.70;86.40;;;;;;4847540;29;20034;-75
2024/03/04 06:49:11;;;;;;;0.13;0.13;;;2.80;86.40;;;;;;4847722;29;20029;-75
2024/03/04 06:51:37;;;;;;;0.10;0.10;;;2.80;86.40;;;;;;4848168;29;20514;-75
2024/03/04 06:54:07;;;;;;;0.15;0.15;;;2.90;86.30;;;;;;4831077;29;20030;-75
2024/03/04 06:56:33;;;;;;;0.10;0.10;;;2.90;86.20;;;;;;4848175;29;20034;-75
2024/03/04 06:58:59;;;;;;;0.20;0.20;;;3.00;86.20;;;;;;4847264;29;20102;-75
2024/03/04 07:01:25;;;;;;;0.10;0.10;;;3.10;86.10;;;;;;4847972;29;20089;-75
2024/03/04 07:03:51;;;;;;;0.10;0.10;;;3.10;86.00;;;;;;4847862;29;20030;-75
2024/03/04 07:06:17;;;;;;;0.20;0.20;;;3.20;86.00;;;;;;4847586;29;20034;-75
2024/03/04 07:08:43;;;;;;;0.20;0.20;;;3.20;86.00;;;;;;4849878;29;20535;-75
2024/03/04 07:11:10;;;;;;;0.20;0.20;;;3.30;85.90;;;;;;4847423;29;20506;-75
2024/03/04 07:13:36;;;;;;;0.10;0.10;;;3.30;85.90;;;;;;4830709;29;20037;-75
2024/03/04 07:16:02;;;;;;;0.20;0.20;;;3.40;85.90;;;;;;4847747;29;20399;-75
2024/03/04 07:18:31;;;;;;;0.20;0.20;;;3.50;85.80;;;;;;4846766;29;20026;-75
2024/03/04 07:20:57;;;;;;;0.20;0.20;;;3.60;85.70;;;;;;4847759;29;20390;-75
2024/03/04 07:23:23;;;;;;;0.20;0.20;;;3.70;85.50;;;;;;4847583;29;20090;-75
2024/03/04 07:25:48;;;;;;;0.10;0.10;;;3.80;85.30;;;;;;4847552;29;20022;-75
2024/03/04 07:28:14;;;;;;;0.10;0.10;;;3.90;85.20;;;;;;4846477;29;20045;-75
2024/03/04 07:30:40;;;;;;;0.20;0.20;;;4.10;85.00;;;;;;4847399;29;20086;-75
2024/03/04 07:33:08;;;;;;;0.20;0.20;;;4.30;84.60;;;;;;4847459;29;20041;-75
2024/03/04 07:35:34;;;;;;;0.20;0.20;;;4.70;84.10;;;;;;4846545;29;20022;-75
2024/03/04 07:38:00;;;;;;;0.20;0.20;;;4.90;83.40;;;;;;4845753;29;20158;-75
2024/03/04 07:40:26;;;;;;;0.30;0.30;;;5.20;82.50;;;;;;4846612;29;20069;-75
2024/03/04 07:42:51;;;;;;;0.30;0.30;;;5.50;82.00;;;;;;4847230;29;20040;-75
2024/03/04 07:45:17;;;;;;;0.20;0.20;;;6.00;80.30;;;;;;4846663;29;20032;-75
2024/03/04 07:47:42;;;;;;;0.10;0.10;;;6.70;79.10;;;;;;4846493;29;20030;-75
2024/03/04 07:50:08;;;;;;;0.10;0.10;;;6.50;77.90;;;;;;4846880;29;20038;-75
2024/03/04 07:52:34;;;;;;;0.20;0.20;;;6.20;79.10;;;;;;4849705;29;20555;-75
2024/03/04 07:55:01;;;;;;;0.20;0.20;;;6.10;79.70;;;;;;4846343;29;20090;-75
2024/03/04 07:57:27;;;;;;;0.20;0.20;;;6.00;80.00;;;;;;4847007;29;20033;-75
2024/03/04 07:59:53;;;;;;;0.20;0.20;;;6.00;80.30;;;;;;4846808;29;20101;-76
2024/03/04 08:02:18;;;;;;;0.20;0.20;;;6.00;80.40;;;;;;4846705;29;20057;-75
2024/03/04 08:04:44;;;;;;;0.20;0.20;;;6.10;80.60;;;;;;4846196;29;20041;-75
2024/03/04 08:07:10;;;;;;;0.20;0.20;;;6.20;80.60;;;;;;4846876;29;20040;-75
2024/03/04 08:09:36;;;;;;;0.20;0.20;;;6.30;80.20;;;;;;4830035;29;20033;-75
2024/03/04 08:12:03;;;;;;;0.40;0.40;;;6.60;80.00;;;;;;4846349;29;20410;-75
2024/03/04 08:14:28;;;;;;;0.40;0.40;;;7.30;77.50;;;;;;4812043;29;20031;-75
2024/03/04 08:16:54;;;;;;;0.20;0.20;;;7.80;76.80;;;;;;4828193;29;20495;-75
2024/03/04 08:19:21;;;;;;;0.20;0.20;;;7.60;76.20;;;;;;4828397;29;20045;-75
2024/03/04 08:21:47;;;;;;;0.20;0.20;;;7.40;76.90;;;;;;4846402;29;20036;-75
2024/03/04 08:24:13;;;;;;;0.10;0.10;;;7.20;77.30;;;;;;4829867;29;20033;-75
2024/03/04 08:26:38;;;;;;;0.15;0.15;;;7.10;77.80;;;;;;4846120;29;20026;-75
2024/03/04 08:29:04;;;;;;;0.20;0.20;;;6.90;78.00;;;;;;4846295;29;20030;-76
2024/03/04 08:31:31;;;;;;;0.20;0.20;;;6.80;78.30;;;;;;4845573;29;20110;-75
2024/03/04 08:33:57;;;;;;;0.20;0.20;;;6.70;78.50;;;;;;4846308;29;20067;-75
2024/03/04 08:36:22;;;;;;;0.10;0.10;;;6.60;78.80;;;;;;4829304;29;20033;-76
2024/03/04 08:38:48;;;;;;;0.20;0.20;;;6.50;78.90;;;;;;4846104;29;20029;-75
2024/03/04 08:41:15;;;;;;;0.20;0.20;;;6.70;79.20;;;;;;4846126;29;20064;-75
2024/03/04 08:43:41;;;;;;;0.20;0.20;;;6.70;79.00;;;;;;4846127;29;20036;-75
2024/03/04 08:46:07;;;;;;;0.20;0.20;;;6.70;78.40;;;;;;4825969;29;20026;-76
2024/03/04 08:48:33;;;;;;;0.30;0.30;;;7.10;78.20;;;;;;4828160;29;20078;-75
2024/03/04 08:50:58;;;;;;;0.25;0.25;;;7.30;77.60;;;;;;4834106;29;20030;-75
2024/03/04 08:53:24;;;;;;;0.20;0.20;;;7.60;76.90;;;;;;4829979;29;20030;-75
2024/03/04 08:55:50;;;;;;;0.20;0.20;;;7.70;76.40;;;;;;4846112;29;20029;-75
2024/03/04 08:58:16;;;;;;;0.20;0.20;;;7.70;76.10;;;;;;4829238;29;20032;-75
2024/03/04 09:00:41;;;;;;;0.20;0.20;;;7.90;75.90;;;;;;4845387;29;20461;-75
2024/03/04 09:03:07;;;;;;;0.20;0.20;;;8.00;75.80;;;;;;4844578;29;20022;-76
2024/03/04 09:05:33;;;;;;;0.20;0.20;;;8.10;74.90;;;;;;4845337;29;20112;-75
2024/03/04 09:08:02;;;;;;;0.30;0.30;;;8.10;75.10;;;;;;4845999;29;20036;-75
2024/03/04 09:10:29;;;;;;;0.30;0.30;;;8.30;74.70;;;;;;4845695;29;20456;-75
2024/03/04 09:12:56;;;;;;;0.20;0.20;;;8.40;74.30;;;;;;4845742;29;20030;-75
2024/03/04 09:15:22;;;;;;;0.20;0.20;;;8.60;74.10;;;;;;4845262;29;20037;-75
2024/03/04 09:17:49;;;;;;;0.20;0.20;;;8.70;73.50;;;;;;4829177;29;20038;-76
2024/03/04 09:20:15;;;;;;;0.20;0.20;;;8.80;73.10;;;;;;4833776;29;20045;-75
2024/03/04 09:22:40;;;;;;;0.20;0.20;;;8.80;73.00;;;;;;4845561;29;20026;-75
2024/03/04 09:25:06;;;;;;;0.20;0.20;;;8.80;73.20;;;;;;4844969;29;20026;-75
2024/03/04 09:27:32;;;;;;;0.30;0.30;;;8.80;72.80;;;;;;4843752;29;20030;-75
2024/03/04 09:29:58;;;;;;;0.28;0.28;;;8.80;72.80;;;;;;4845587;29;20030;-75
2024/03/04 09:32:25;;;;;;;0.30;0.30;;;8.80;72.50;;;;;;4845604;29;20069;-75
2024/03/04 09:34:51;;;;;;;0.30;0.30;;;8.90;72.60;;;;;;4845360;29;20038;-75
2024/03/04 09:37:17;;;;;;;0.40;0.40;;;9.10;72.80;;;;;;4845673;29;20462;-75
2024/03/04 09:39:42;;;;;;;0.50;0.50;;;9.30;72.00;;;;;;4845267;29;20058;-75
2024/03/04 09:42:08;;;;;;;0.50;0.50;;;9.60;71.70;;;;;;4825313;29;20060;-76
2024/03/04 09:44:34;;;;;;;0.50;0.50;;;9.90;70.40;;;;;;4838740;29;20033;-75
2024/03/04 09:47:00;;;;;;;0.30;0.30;;;10.10;69.00;;;;;;4845665;29;20038;-76
2024/03/04 09:49:29;;;;;;;0.57;0.57;;;9.90;69.10;;;;;;4845120;29;20037;-76
2024/03/04 09:51:59;;;;;;;0.50;0.50;;;10.10;69.30;;;;;;4844798;29;20459;-75
2024/03/04 09:54:29;;;;;;;0.60;0.60;;;10.20;68.80;;;;;;4845668;29;20041;-75
2024/03/04 09:56:55;;;;;;;0.50;0.50;;;10.40;68.80;;;;;;4845331;29;20030;-75
2024/03/04 09:59:22;;;;;;;0.40;0.40;;;10.50;67.80;;;;;;4831196;29;20033;-75
2024/03/04 10:01:48;;;;;;;0.30;0.30;;;10.50;68.60;;;;;;4844805;29;20041;-76
2024/03/04 10:04:15;;;;;;;0.20;0.20;;;10.50;68.10;;;;;;4843429;29;20497;-76
2024/03/04 10:06:41;;;;;;;0.10;0.10;;;10.20;69.00;;;;;;4848792;29;20071;-75
2024/03/04 10:09:12;;;;;;;0.20;0.20;;;10.10;69.80;;;;;;4848382;29;20029;-75
2024/03/04 10:11:42;;;;;;;0.10;0.10;;;10.10;70.60;;;;;;4848622;29;20065;-75
2024/03/04 10:14:08;;;;;;;0.20;0.20;;;10.00;70.80;;;;;;4848594;29;20030;-74
2024/03/04 10:16:36;;;;;;;0.20;0.20;;;9.90;71.60;;;;;;4848019;29;20048;-75
2024/03/04 10:19:03;;;;;;;0.10;0.10;;;9.90;71.20;;;;;;4848287;29;20026;-74
2024/03/04 10:21:32;;;;;;;0.20;0.20;;;9.70;71.50;;;;;;4848089;29;20121;-74
2024/03/04 10:24:06;;;;;;;0.10;0.10;;;9.80;71.70;;;;;;4848639;29;20018;-74
2024/03/04 10:26:45;;;;;;;0.10;0.10;;;9.90;72.10;;;;;;4848578;29;20033;-75
2024/03/04 10:29:12;;;;;;;0.10;0.10;;;9.80;72.50;;;;;;4830142;29;20113;-74
2024/03/04 10:31:52;;;;;;;0.10;0.10;;;9.80;72.40;;;;;;4830059;29;20050;-74
2024/03/04 10:34:18;;;;;;;0.10;0.10;;;9.90;72.80;;;;;;4821215;29;20075;-74
2024/03/04 10:36:56;;;;;;;0.10;0.10;;;9.80;72.10;;;;;;4848465;29;20041;-74
2024/03/04 10:39:23;;;;;;;0.20;0.20;;;9.70;72.20;;;;;;4847947;29;20045;-75
2024/03/04 10:41:51;;;;;;;0.10;0.10;;;9.70;73.00;;;;;;4847943;29;20063;-74
2024/03/04 10:44:24;;;;;;;0.10;0.10;;;9.70;72.80;;;;;;4847336;29;20034;-75
2024/03/04 10:46:54;;;;;;;0.10;0.10;;;9.60;72.90;;;;;;4846223;29;20094;-74
2024/03/04 10:49:24;;;;;;;0.15;0.15;;;9.60;72.60;;;;;;4828051;29;20087;-74
2024/03/04 10:51:49;;;;;;;0.10;0.10;;;9.50;72.90;;;;;;4829677;29;20110;-75
2024/03/04 10:54:22;;;;;;;0.10;0.10;;;9.40;73.00;;;;;;4844163;29;20475;-74
2024/03/04 10:56:58;;;;;;;0.10;0.10;;;9.30;72.90;;;;;;4847422;29;20030;-74
2024/03/04 10:59:41;;;;;;;0.13;0.13;;;9.20;74.00;;;;;;4847768;29;20026;-74
2024/03/04 11:02:14;;;;;;;0.10;0.10;;;9.20;74.00;;;;;;4847469;29;20063;-75
2024/03/04 11:04:43;;;;;;;0.10;0.10;;;9.30;73.90;;;;;;4847762;29;20041;-74
2024/03/04 11:07:11;;;;;;;0.10;0.10;;;9.40;74.10;;;;;;4847220;29;20065;-74
2024/03/04 11:09:46;;;;;;;0.10;0.10;;;9.50;73.80;;;;;;4847720;29;20419;-74
2024/03/04 11:12:16;;;;;;;0.20;0.20;;;9.60;73.50;;;;;;4847665;29;20026;-75
2024/03/04 11:14:53;;;;;;;0.20;0.20;;;9.70;73.50;;;;;;4848710;29;20114;-75
2024/03/04 11:17:22;;;;;;;0.10;0.10;;;9.80;72.60;;;;;;4846953;29;20030;-75
2024/03/04 11:19:51;;;;;;;0.15;0.15;;;9.90;72.80;;;;;;4830954;29;20066;-75
2024/03/04 11:22:18;;;;;;;0.10;0.10;;;10.00;72.70;;;;;;4847566;29;20034;-75
2024/03/04 11:24:48;;;;;;;0.10;0.10;;;10.10;71.50;;;;;;4847682;29;20089;-76
2024/03/04 11:27:15;;;;;;;0.10;0.10;;;10.00;71.80;;;;;;4847173;29;20034;-75
2024/03/04 11:29:42;;;;;;;0.10;0.10;;;9.90;72.10;;;;;;4830422;29;20112;-75
2024/03/04 11:32:10;;;;;;;0.20;0.20;;;9.70;72.20;;;;;;4846695;29;20058;-75
2024/03/04 11:35:05;;;;;;;0.10;0.10;;;9.80;72.40;;;;;;4838710;29;20085;-75
2024/03/04 11:37:47;;;;;;;0.10;0.10;;;9.80;72.30;;;;;;4847117;29;20038;-75
2024/03/04 11:40:13;;;;;;;0.20;0.20;;;9.80;72.60;;;;;;4830622;29;20038;-75
2024/03/04 11:42:38;;;;;;;0.13;0.13;;;9.90;72.40;;;;;;4830471;29;20032;-75
2024/03/04 11:45:08;;;;;;;0.20;0.20;;;9.90;72.30;;;;;;4847384;29;20083;-75
2024/03/04 11:47:34;;;;;;;0.15;0.15;;;9.90;72.20;;;;;;4846126;29;20034;-75
2024/03/04 11:50:01;;;;;;;0.20;0.20;;;9.90;72.40;;;;;;4846621;29;20037;-75
2024/03/04 11:52:27;;;;;;;0.10;0.10;;;10.00;72.30;;;;;;4846564;29;20046;-75
2024/03/04 11:54:57;;;;;;;0.10;0.10;;;10.00;71.80;;;;;;4845798;29;20039;-75
2024/03/04 11:57:24;;;;;;;0.10;0.10;;;9.90;71.40;;;;;;4846841;29;20034;-76
2024/03/04 11:59:56;;;;;;;0.10;0.10;;;10.00;71.70;;;;;;4846856;29;20372;-75
2024/03/04 12:02:22;;;;;;;0.10;0.10;;;9.90;72.10;;;;;;4829775;29;20033;-75
2024/03/04 12:04:47;;;;;;;0.10;0.10;;;10.00;72.30;;;;;;4846818;29;20026;-76
2024/03/04 12:07:14;;;;;;;0.10;0.10;;;9.90;71.70;;;;;;4847157;29;20053;-75
2024/03/04 12:09:41;;;;;;;0.17;0.17;;;10.00;71.40;;;;;;4846592;29;20030;-76
2024/03/04 12:12:08;;;;;;;0.10;0.10;;;10.00;71.60;;;;;;4846739;29;20030;-75
2024/03/04 12:14:33;;;;;;;0.10;0.10;;;10.10;71.00;;;;;;4845259;29;20029;-75
2024/03/04 12:17:00;;;;;;;0.10;0.10;;;10.10;71.40;;;;;;4845771;29;20041;-76
2024/03/04 12:19:26;;;;;;;0.10;0.10;;;10.10;71.50;;;;;;4846004;29;20030;-75
2024/03/04 12:21:53;;;;;;;0.10;0.10;;;10.00;71.70;;;;;;4846372;29;20050;-75
2024/03/04 12:24:23;;;;;;;0.10;0.10;;;9.90;71.80;;;;;;4845907;29;20030;-75
2024/03/04 12:26:54;;;;;;;0.10;0.10;;;9.80;72.50;;;;;;4829337;29;20093;-75
2024/03/04 12:29:26;;;;;;;0.10;0.10;;;9.80;71.60;;;;;;4828739;29;20051;-75
2024/03/04 12:31:55;;;;;;;0.17;0.17;;;9.70;71.50;;;;;;4845787;29;20118;-76
2024/03/04 12:34:21;;;;;;;0.17;0.17;;;9.70;71.80;;;;;;4846301;29;20034;-75
2024/03/04 12:36:49;;;;;;;0.10;0.10;;;9.80;72.30;;;;;;4846435;29;20033;-75
2024/03/04 12:39:16;;;;;;;0.10;0.10;;;9.70;72.10;;;;;;4830006;29;20038;-75
2024/03/04 12:41:42;;;;;;;0.10;0.10;;;9.70;72.00;;;;;;4826107;29;20034;-75
2024/03/04 12:44:08;;;;;;;0.10;0.10;;;9.70;72.50;;;;;;4827946;29;20502;-75
2024/03/04 12:46:37;;;;;;;0.10;0.10;;;9.70;72.40;;;;;;4828313;29;20034;-75
2024/03/04 12:49:04;;;;;;;0.10;0.10;;;9.50;72.50;;;;;;4827776;29;20026;-75
2024/03/04 12:51:35;;;;;;;0.10;0.10;;;9.50;73.20;;;;;;4836470;29;20514;-75
2024/03/04 12:54:01;;;;;;;0.10;0.10;;;9.50;73.90;;;;;;4846134;29;20025;-75
2024/03/04 12:56:26;;;;;;;0.10;0.10;;;9.30;74.00;;;;;;4845965;29;20065;-75
2024/03/04 12:58:52;;;;;;;0.10;0.10;;;9.30;75.50;;;;;;4845638;29;20034;-75
2024/03/04 13:01:18;;;;;;;0.10;0.10;;;9.20;76.70;;;;;;4845183;29;20030;-75
2024/03/04 13:03:43;;;;;;;0.10;0.10;;;9.20;78.10;;;;;;4845937;29;20064;-75
2024/03/04 13:06:10;;;;;;;0.10;0.10;;;9.00;78.70;;;;;;4829683;29;20038;-75
2024/03/04 13:08:36;;;;;;;0.10;0.10;;;9.00;79.00;;;;;;4845680;29;20073;-75
2024/03/04 13:11:01;;;;;;;0.10;0.10;;;8.90;79.60;;;;;;4847274;29;20113;-75
2024/03/04 13:13:27;;;;;;;0.10;0.10;;;8.80;80.40;;;;;;4844391;29;20080;-75
2024/03/04 13:15:55;;;;;;;0.10;0.10;;;8.80;80.70;;;;;;4845143;29;20026;-76
2024/03/04 13:18:21;;;;;;;0.10;0.10;;;8.70;81.10;;;;;;4845504;29;20026;-75
2024/03/04 13:20:47;;;;;;;0.10;0.10;;;8.70;81.40;;;;;;4845123;29;20026;-75
2024/03/04 13:23:13;;;;;;;0.10;0.10;;;8.60;81.60;;;;;;4828527;29;20040;-75
2024/03/04 13:25:38;;;;;;;0.10;0.10;;;8.60;82.30;;;;;;4845779;29;20398;-75
2024/03/04 13:28:04;;;;;;;0.10;0.10;;;8.50;82.20;;;;;;4845450;29;20485;-75
2024/03/04 13:30:29;;;;;;;0.10;0.10;;;8.50;82.50;;;;;;4844130;29;20049;-75
2024/03/04 13:32:55;;;;;;;0.10;0.10;;;8.40;83.20;;;;;;4845111;29;20061;-75
2024/03/04 13:35:21;;;;;;;0.10;0.10;;;8.30;83.50;;;;;;4845745;29;20064;-75
2024/03/04 13:37:47;;;;;;;0.10;0.10;;;8.30;84.00;;;;;;4847936;29;20037;-75
2024/03/04 13:40:13;;;;;;;0.10;0.10;;;8.20;84.70;;;;;;4849222;29;20030;-75
2024/03/04 13:42:40;;;;;;;0.10;0.10;;;8.20;84.70;;;;;;4849134;29;20059;-75
2024/03/04 13:45:09;;;;;;;0.10;0.10;;;8.20;84.80;;;;;;4848754;29;20528;-75
2024/03/04 13:47:35;;;;;;;0.10;0.10;;;8.20;85.10;;;;;;4843931;29;20058;-75
2024/03/04 13:50:02;;;;;;;0.20;0.20;;;8.20;84.70;;;;;;4849078;29;20810;-75
2024/03/04 13:52:28;;;;;;;0.10;0.10;;;8.40;84.60;;;;;;4848624;29;20037;-75
2024/03/04 13:54:54;;;;;;;0.10;0.10;;;8.30;84.10;;;;;;4848809;29;20033;-75
2024/03/04 13:57:19;;;;;;;0.10;0.10;;;8.30;84.00;;;;;;4848712;29;20513;-75
2024/03/04 13:59:45;;;;;;;0.10;0.10;;;8.50;84.40;;;;;;4851172;29;20068;-75
2024/03/04 14:02:11;;;;;;;0.10;0.10;;;8.40;84.20;;;;;;4832672;29;20037;-75
2024/03/04 14:04:36;;;;;;;0.10;0.10;;;8.40;84.10;;;;;;4831829;29;20034;-75
2024/03/04 14:07:06;;;;;;;0.10;0.10;;;8.40;84.40;;;;;;4832382;29;20121;-75
2024/03/04 14:09:31;;;;;;;0.10;0.10;;;8.40;84.40;;;;;;4832044;29;20070;-75
2024/03/04 14:11:57;;;;;;;0.20;0.20;;;8.30;83.60;;;;;;4848262;29;20026;-75
2024/03/04 14:14:23;;;;;;;0.10;0.10;;;8.10;82.80;;;;;;4847248;29;20116;-75
2024/03/04 14:16:49;;;;;;;0.10;0.10;;;7.90;83.50;;;;;;4848881;29;20033;-75
2024/03/04 14:19:15;;;;;;;0.10;0.10;;;7.80;84.00;;;;;;4848014;29;20034;-75
2024/03/04 14:21:41;;;;;;;0.20;0.20;;;7.80;84.70;;;;;;4848675;29;20026;-75
2024/03/04 14:24:10;;;;;;;0.10;0.10;;;7.70;83.70;;;;;;4847335;29;20082;-75
2024/03/04 14:26:36;;;;;;;0.10;0.10;;;7.80;83.30;;;;;;4831302;29;20029;-75
2024/03/04 14:29:03;;;;;;;0.10;0.10;;;7.80;83.60;;;;;;4847858;29;20041;-75
2024/03/04 14:31:29;;;;;;;0.10;0.10;;;7.70;84.10;;;;;;4848287;29;20128;-75
2024/03/04 14:33:55;;;;;;;0.10;0.10;;;7.70;84.20;;;;;;4830664;29;20065;-75
2024/03/04 14:36:20;;;;;;;0.10;0.10;;;7.60;84.80;;;;;;4848568;29;20029;-75
2024/03/04 14:38:46;;;;;;;0.10;0.10;;;7.60;84.80;;;;;;4847988;29;20128;-75
2024/03/04 14:41:20;;;;;;;0.10;0.10;;;7.70;85.00;;;;;;4847859;29;20022;-75
2024/03/04 14:43:47;;;;;;;0.10;0.10;;;7.60;85.10;;;;;;4848115;29;20030;-75
2024/03/04 14:46:14;;;;;;;0.10;0.10;;;7.60;85.30;;;;;;4831678;29;20034;-75
2024/03/04 14:48:40;;;;;;;0.10;0.10;;;7.60;84.70;;;;;;4846676;29;20038;-75
2024/03/04 14:51:06;;;;;;;0.10;0.10;;;7.70;85.10;;;;;;4848101;29;20546;-75
2024/03/04 14:53:32;;;;;;;0.10;0.10;;;7.70;85.10;;;;;;4848131;29;20064;-75
2024/03/04 14:55:57;;;;;;;0.10;0.10;;;7.70;84.90;;;;;;4831024;29;20038;-75
2024/03/04 14:58:23;;;;;;;0.10;0.10;;;7.70;85.00;;;;;;4847747;29;20042;-75
2024/03/04 15:00:50;;;;;;;0.10;0.10;;;7.80;85.10;;;;;;4847692;29;20030;-75
2024/03/04 15:03:16;;;;;;;0.20;0.20;;;7.90;85.00;;;;;;4847796;29;20113;-75
2024/03/04 15:05:42;;;;;;;0.10;0.10;;;7.90;84.90;;;;;;4847628;29;20046;-75
2024/03/04 15:08:08;;;;;;;0.15;0.15;;;7.80;84.60;;;;;;4827681;29;20038;-75
2024/03/04 15:10:33;;;;;;;0.10;0.10;;;7.80;85.50;;;;;;4829680;29;20112;-75
2024/03/04 15:12:59;;;;;;;0.20;0.20;;;7.70;85.10;;;;;;4812988;29;20612;-75
2024/03/04 15:15:25;;;;;;;0.10;0.10;;;7.70;85.60;;;;;;4835749;29;20030;-75
2024/03/04 15:17:50;;;;;;;0.10;0.10;;;7.70;86.10;;;;;;4830533;29;20045;-75
2024/03/04 15:20:17;;;;;;;0.10;0.10;;;7.70;86.30;;;;;;4847573;29;20064;-75
2024/03/04 15:22:44;;;;;;;0.10;0.10;;;7.60;86.20;;;;;;4847721;29;20055;-75
2024/03/04 15:25:11;;;;;;;0.10;0.10;;;7.60;86.70;;;;;;4846944;29;20038;-75
2024/03/04 15:27:36;;;;;;;0.10;0.10;;;7.50;86.50;;;;;;4847353;29;20038;-75
2024/03/04 15:30:07;;;;;;;0.10;0.10;;;7.50;86.40;;;;;;4846926;29;20513;-75
2024/03/04 15:32:33;;;;;;;0.10;0.10;;;7.50;86.50;;;;;;4830710;29;20053;-75
2024/03/04 15:34:59;;;;;;;0.10;0.10;;;7.50;86.80;;;;;;4846685;29;20038;-75
2024/03/04 15:37:25;;;;;;;0.10;0.10;;;7.50;86.90;;;;;;4846863;29;20600;-75
2024/03/04 15:39:51;;;;;;;0.10;0.10;;;7.40;87.20;;;;;;4845685;29;20097;-75
2024/03/04 15:42:17;;;;;;;0.10;0.10;;;7.40;87.20;;;;;;4847272;29;20108;-75
2024/03/04 15:44:44;;;;;;;0.10;0.10;;;7.30;87.30;;;;;;4830898;29;20082;-75
2024/03/04 15:47:10;;;;;;;0.10;0.10;;;7.30;87.70;;;;;;4846602;29;20018;-75
2024/03/04 15:49:38;;;;;;;0.10;0.10;;;7.40;87.90;;;;;;4847053;29;20080;-75
2024/03/04 15:52:05;;;;;;;0.10;0.10;;;7.40;88.00;;;;;;4846017;29;20034;-75
2024/03/04 15:54:30;;;;;;;0.10;0.10;;;7.30;88.10;;;;;;4846688;29;20033;-75
2024/03/04 15:56:56;;;;;;;0.10;0.10;;;7.40;88.30;;;;;;4832623;29;20062;-75
2024/03/04 15:59:21;;;;;;;0.10;0.10;;;7.30;88.40;;;;;;4829963;29;20037;-75
2024/03/04 16:01:47;;;;;;;0.10;0.10;;;7.30;88.50;;;;;;4846333;29;20436;-75
2024/03/04 16:04:13;;;;;;;0.10;0.10;;;7.30;88.50;;;;;;4846921;29;20045;-75
2024/03/04 16:06:39;;;;;;;0.10;0.10;;;7.30;88.80;;;;;;4846238;29;20116;-75
2024/03/04 16:09:08;;;;;;;0.10;0.10;;;7.20;88.80;;;;;;4846865;29;20037;-74
2024/03/04 16:11:34;;;;;;;0.10;0.10;;;7.30;89.00;;;;;;4846718;29;20036;-74
2024/03/04 16:14:01;;;;;;;0.10;0.10;;;7.30;89.00;;;;;;4829420;29;20033;-74
2024/03/04 16:16:27;;;;;;;0.10;0.10;;;7.30;88.90;;;;;;4846364;29;20114;-74
2024/03/04 16:18:52;;;;;;;0.10;0.10;;;7.30;88.90;;;;;;4845829;29;20034;-74
2024/03/04 16:21:18;;;;;;;0.20;0.20;;;7.40;88.90;;;;;;4841324;29;20026;-74
2024/03/04 16:23:44;;;;;;;0.10;0.10;;;7.30;89.10;;;;;;4812089;29;20029;-74
2024/03/04 16:26:10;;;;;;;0.10;0.10;;;7.40;88.90;;;;;;4820498;29;20094;-75
2024/03/04 16:28:36;;;;;;;0.10;0.10;;;7.40;88.90;;;;;;4844817;29;20049;-74
2024/03/04 16:31:05;;;;;;;0.10;0.10;;;7.40;89.20;;;;;;4845607;29;20054;-74
2024/03/04 16:33:31;;;;;;;0.10;0.10;;;7.40;89.20;;;;;;4840395;29;20030;-74
2024/03/04 16:35:56;;;;;;;0.10;0.10;;;7.40;89.30;;;;;;4846298;29;20033;-74
2024/03/04 16:38:22;;;;;;;0.10;0.10;;;7.50;89.40;;;;;;4845660;29;20037;-74
2024/03/04 16:40:48;;;;;;;0.10;0.10;;;7.50;89.40;;;;;;4829774;29;20051;-74
2024/03/04 16:43:13;;;;;;;0.10;0.10;;;7.50;89.40;;;;;;4846237;29;20030;-74
2024/03/04 16:45:39;;;;;;;0.10;0.10;;;7.50;89.30;;;;;;4845717;29;20030;-74
2024/03/04 16:48:05;;;;;;;0.10;0.10;;;7.50;89.40;;;;;;4845820;29;20383;-74
2024/03/04 16:50:30;;;;;;;0.10;0.10;;;7.50;89.40;;;;;;4845924;29;20040;-74
2024/03/04 16:52:56;;;;;;;0.10;0.10;;;7.50;89.40;;;;;;4845632;29;20050;-74
2024/03/04 16:55:22;;;;;;;0.10;0.10;;;7.50;89.40;;;;;;4845811;29;20026;-74
2024/03/04 16:57:48;;;;;;;0.10;0.10;;;7.50;89.50;;;;;;4845202;29;20044;-74
2024/03/04 17:00:15;;;;;;;0.10;0.10;;;7.50;89.80;;;;;;4846137;29;20026;-74
2024/03/04 17:02:41;;;;;;;0.10;0.10;;;7.50;89.80;;;;;;4828237;29;20064;-74
2024/03/04 17:05:09;;;;;;;0.10;0.10;;;7.50;89.70;;;;;;4845259;29;20026;-74
2024/03/04 17:07:35;;;;;;;0.10;0.10;;;7.60;89.80;;;;;;4845799;29;20038;-75
2024/03/04 17:10:01;;;;;;;0.10;0.10;;;7.60;89.70;;;;;;4845109;29;20038;-74
2024/03/04 17:12:29;;;;;;;0.10;0.10;;;7.60;89.60;;;;;;4845461;29;20037;-74
2024/03/04 17:14:55;;;;;;;0.10;0.10;;;7.70;89.90;;;;;;4847195;29;20549;-74
2024/03/04 17:17:20;;;;;;;0.10;0.10;;;7.70;89.80;;;;;;4845168;29;20046;-74
2024/03/04 17:19:46;;;;;;;0.10;0.10;;;7.70;89.80;;;;;;4845694;29;20052;-75
2024/03/04 17:22:11;;;;;;;0.10;0.10;;;7.70;89.70;;;;;;4845467;29;20041;-74
2024/03/04 17:24:37;;;;;;;0.10;0.10;;;7.70;89.70;;;;;;4845760;29;20026;-74
2024/03/04 17:27:03;;;;;;;0.10;0.10;;;7.70;89.70;;;;;;4845146;29;20025;-74
2024/03/04 17:29:29;;;;;;;0.10;0.10;;;7.70;89.80;;;;;;4845365;29;20073;-74
2024/03/04 17:31:55;;;;;;;0.10;0.10;;;7.70;89.60;;;;;;4825373;29;20130;-75
2024/03/04 17:34:20;;;;;;;0.10;0.10;;;7.80;89.50;;;;;;4827546;29;20069;-74
2024/03/04 17:36:46;;;;;;;0.10;0.10;;;7.70;89.60;;;;;;4825842;29;20491;-74
2024/03/04 17:39:12;;;;;;;0.10;0.10;;;7.70;89.60;;;;;;4826942;29;20094;-74
2024/03/04 17:41:37;;;;;;;0.10;0.10;;;7.70;89.60;;;;;;4829702;29;20026;-74
2024/03/04 17:44:03;;;;;;;0.10;0.10;;;7.80;89.50;;;;;;4827036;29;20027;-74
2024/03/04 17:46:29;;;;;;;0.10;0.10;;;7.70;89.50;;;;;;4826788;29;20035;-74
2024/03/04 17:48:54;;;;;;;0.10;0.10;;;7.70;89.50;;;;;;4825514;29;20043;-74
2024/03/04 17:51:20;;;;;;;0.10;0.10;;;7.70;89.50;;;;;;4827109;29;20092;-74
2024/03/04 17:53:45;;;;;;;0.10;0.10;;;7.70;89.60;;;;;;4829498;29;20031;-74
2024/03/04 17:56:12;;;;;;;0.20;0.20;;;7.70;89.60;;;;;;4826155;29;20862;-74
2024/03/04 17:58:38;;;;;;;0.13;0.13;;;7.60;89.70;;;;;;4825607;29;20041;-74
2024/03/04 18:01:04;;;;;;;0.10;0.10;;;7.70;89.80;;;;;;4827217;29;20026;-74
2024/03/04 18:03:30;;;;;;;0.10;0.10;;;7.60;89.80;;;;;;4826416;29;20070;-74
2024/03/04 18:05:55;;;;;;;0.10;0.10;;;7.60;89.90;;;;;;4822337;29;20039;-74
2024/03/04 18:08:21;;;;;;;0.10;0.10;;;7.60;89.90;;;;;;4808877;29;20030;-74
2024/03/04 18:10:48;;;;;;;0.10;0.10;;;7.60;89.90;;;;;;4808907;29;20030;-74
2024/03/04 18:13:16;;;;;;;0.10;0.10;;;7.60;90.00;;;;;;4814977;29;20030;-74
2024/03/04 18:15:47;;;;;;;0.10;0.10;;;7.50;90.00;;;;;;4840779;29;20102;-74
2024/03/04 18:18:15;;;;;;;0.10;0.10;;;7.50;90.10;;;;;;4825629;29;20061;-74
2024/03/04 18:20:41;;;;;;;0.10;0.10;;;7.50;90.10;;;;;;4826319;29;20038;-74
2024/03/04 18:23:07;;;;;;;0.10;0.10;;;7.60;90.00;;;;;;4827452;29;20041;-74